createdAt,value
2019-03-09T00:02:24.033Z,72.15
2019-03-09T00:04:57.933Z,72.18
2019-03-09T00:07:31.952Z,71.95
2019-03-09T00:10:08.702Z,71.47
2019-03-09T00:12:42.528Z,71.01
2019-03-09T00:15:16.300Z,71.00
2019-03-09T00:17:50.233Z,70.99
2019-03-09T00:20:24.975Z,70.78
2019-03-09T00:23:28.356Z,71.18
2019-03-09T00:26:25.808Z,71.19
2019-03-09T00:29:06.902Z,70.70
2019-03-09T00:31:51.323Z,70.79
2019-03-09T00:34:25.223Z,70.46
2019-03-09T00:36:59.384Z,70.38
2019-03-09T00:39:34.227Z,70.42
2019-03-09T00:42:08.096Z,70.46
2019-03-09T00:44:43.339Z,70.45
2019-03-09T00:47:18.783Z,70.77
2019-03-09T00:49:54.431Z,70.75
2019-03-09T00:52:29.914Z,70.62
2019-03-09T00:55:03.793Z,70.72
2019-03-09T00:57:38.617Z,70.76
2019-03-09T01:00:18.572Z,71.14
2019-03-09T01:02:52.260Z,71.37
2019-03-09T01:05:25.976Z,71.04
2019-03-09T01:07:59.995Z,71.35
2019-03-09T01:10:34.824Z,71.47
2019-03-09T01:13:10.163Z,71.39
2019-03-09T01:15:45.301Z,71.43
2019-03-09T01:18:18.946Z,71.39
2019-03-09T01:20:52.745Z,71.16
2019-03-09T01:23:26.355Z,71.47
2019-03-09T01:26:01.925Z,71.58
2019-03-09T01:28:35.990Z,71.27
2019-03-09T01:31:10.194Z,71.58
2019-03-09T01:33:45.132Z,71.21
2019-03-09T01:36:19.243Z,71.45
2019-03-09T01:38:53.988Z,71.19
2019-03-09T01:41:29.633Z,71.59
2019-03-09T01:44:05.169Z,72.23
2019-03-09T01:46:39.599Z,72.62
2019-03-09T01:49:13.325Z,72.39
2019-03-09T01:51:47.363Z,72.57
2019-03-09T01:54:21.043Z,73.29
2019-03-09T01:56:54.911Z,73.12
2019-03-09T01:59:29.813Z,73.25
2019-03-09T02:02:03.458Z,73.39
2019-03-09T02:04:37.325Z,73.57
2019-03-09T02:07:12.854Z,73.91
2019-03-09T02:09:46.895Z,74.62
2019-03-09T02:12:22.789Z,74.07
2019-03-09T02:14:58.641Z,74.55
2019-03-09T02:17:32.324Z,74.34
2019-03-09T02:20:06.705Z,74.34
2019-03-09T02:22:41.766Z,74.26
2019-03-09T02:25:15.832Z,74.45
2019-03-09T02:27:50.857Z,74.83
2019-03-09T02:30:24.929Z,74.91
2019-03-09T02:32:58.974Z,74.98
2019-03-09T02:35:33.637Z,74.76
2019-03-09T02:38:26.489Z,74.61
2019-03-09T02:41:03.192Z,74.72
2019-03-09T02:43:36.915Z,74.84
2019-03-09T02:46:10.543Z,74.76
2019-03-09T02:48:44.435Z,75.32
2019-03-09T02:51:19.308Z,74.83
2019-03-09T02:53:53.363Z,74.84
2019-03-09T02:56:27.138Z,75.09
2019-03-09T02:59:01.414Z,75.86
2019-03-09T03:01:54.054Z,76.32
2019-03-09T03:04:27.861Z,77.33
2019-03-09T03:07:01.661Z,77.77
2019-03-09T03:09:35.541Z,77.95
2019-03-09T03:12:09.303Z,78.59
2019-03-09T03:14:44.145Z,78.77
2019-03-09T03:17:17.825Z,79.47
2019-03-09T03:19:52.261Z,79.75
2019-03-09T03:22:26.926Z,80.31
2019-03-09T03:25:01.718Z,80.81
2019-03-09T03:27:38.469Z,80.94
2019-03-09T03:30:12.690Z,81.84
2019-03-09T03:32:47.636Z,82.21
2019-03-09T03:35:21.373Z,82.10
2019-03-09T03:37:55.241Z,82.13
2019-03-09T03:40:28.947Z,82.52
2019-03-09T03:43:02.643Z,82.89
2019-03-09T03:45:36.409Z,83.20
2019-03-09T03:48:10.256Z,83.27
2019-03-09T03:50:43.899Z,82.97
2019-03-09T03:53:19.047Z,83.11
2019-03-09T03:55:54.969Z,83.11
2019-03-09T03:58:29.130Z,83.27
2019-03-09T04:01:02.993Z,83.85
2019-03-09T04:03:36.792Z,83.74
2019-03-09T04:06:10.958Z,84.09
2019-03-09T04:08:46.194Z,84.64
2019-03-09T04:11:20.426Z,84.77
2019-03-09T04:13:54.385Z,84.95
2019-03-09T04:16:28.279Z,85.04
2019-03-09T04:19:05.595Z,85.37
2019-03-09T04:21:41.154Z,85.69
2019-03-09T04:24:14.903Z,85.61
2019-03-09T04:26:48.912Z,86.23
2019-03-09T04:29:23.155Z,86.50
2019-03-09T04:31:57.387Z,86.53
2019-03-09T04:34:31.574Z,86.24
2019-03-09T04:37:05.388Z,86.76
2019-03-09T04:39:39.233Z,86.38
2019-03-09T04:42:15.623Z,86.55
2019-03-09T04:44:49.500Z,86.84
2019-03-09T04:47:24.699Z,86.93
2019-03-09T04:49:58.441Z,87.01
2019-03-09T04:52:33.370Z,87.23
2019-03-09T04:55:09.042Z,87.37
2019-03-09T04:57:43.226Z,87.82
2019-03-09T05:00:19.402Z,88.42
2019-03-09T05:02:54.845Z,88.33
2019-03-09T05:05:29.779Z,88.60
2019-03-09T05:08:15.486Z,88.58
2019-03-09T05:11:10.820Z,88.41
2019-03-09T05:13:57.253Z,88.47
2019-03-09T05:16:31.137Z,88.45
2019-03-09T05:19:06.306Z,88.38
2019-03-09T05:21:40.220Z,88.07
2019-03-09T05:24:14.288Z,88.35
2019-03-09T05:26:48.167Z,88.29
2019-03-09T05:29:22.161Z,88.33
2019-03-09T05:31:56.132Z,88.50
2019-03-09T05:34:32.786Z,88.55
2019-03-09T05:37:06.954Z,88.30
2019-03-09T05:39:42.191Z,88.58
2019-03-09T05:42:17.607Z,88.64
2019-03-09T05:44:52.998Z,89.10
2019-03-09T05:47:27.138Z,89.23
2019-03-09T05:50:00.799Z,89.22
2019-03-09T05:52:38.686Z,89.53
2019-03-09T05:55:21.302Z,89.64
2019-03-09T05:57:55.353Z,89.77
2019-03-09T06:00:29.371Z,89.65
2019-03-09T06:03:03.806Z,89.90
2019-03-09T06:06:00.793Z,89.82
2019-03-09T06:08:37.758Z,90.04
2019-03-09T06:11:13.283Z,89.98
2019-03-09T06:13:47.128Z,90.29
2019-03-09T06:16:20.936Z,90.22
2019-03-09T06:18:54.853Z,90.31
2019-03-09T06:21:30.195Z,90.40
2019-03-09T06:24:04.152Z,89.99
2019-03-09T06:26:39.357Z,89.32
2019-03-09T06:29:13.423Z,88.83
2019-03-09T06:32:51.939Z,88.68
2019-03-09T06:35:29.330Z,88.07
2019-03-09T06:38:34.044Z,87.18
2019-03-09T06:41:09.769Z,86.32
2019-03-09T06:43:43.500Z,84.43
2019-03-09T06:46:18.678Z,83.96
2019-03-09T06:48:52.349Z,79.67
2019-03-09T06:51:26.045Z,80.19
2019-03-09T06:54:02.007Z,80.41
2019-03-09T06:56:37.141Z,80.95
2019-03-09T06:59:12.587Z,81.06
2019-03-09T07:01:47.405Z,81.26
2019-03-09T07:04:23.578Z,80.92
2019-03-09T07:06:57.315Z,78.67
2019-03-09T07:09:33.056Z,78.92
2019-03-09T07:12:09.569Z,77.70
2019-03-09T07:15:21.921Z,78.87
2019-03-09T07:18:01.132Z,79.60
2019-03-09T07:20:36.671Z,80.15
2019-03-09T07:23:12.055Z,80.21
2019-03-09T07:25:46.309Z,78.65
2019-03-09T07:28:20.412Z,78.50
2019-03-09T07:30:55.695Z,72.68
2019-03-09T07:33:29.568Z,73.48
2019-03-09T07:36:03.881Z,69.78
2019-03-09T07:38:37.736Z,70.12
2019-03-09T07:41:11.369Z,69.32
2019-03-09T07:43:45.149Z,65.10
2019-03-09T07:46:20.283Z,65.25
2019-03-09T07:48:54.007Z,66.71
2019-03-09T07:51:28.921Z,68.69
2019-03-09T07:54:02.983Z,64.37
2019-03-09T07:56:37.655Z,63.63
2019-03-09T07:59:11.863Z,59.99
2019-03-09T08:01:47.664Z,56.51
2019-03-09T08:04:22.460Z,55.47
2019-03-09T08:06:56.230Z,54.97
2019-03-09T08:09:32.633Z,53.52
2019-03-09T08:12:06.278Z,54.80
2019-03-09T08:14:40.021Z,58.25
2019-03-09T08:17:15.233Z,60.01
2019-03-09T08:19:50.532Z,59.68
2019-03-09T08:22:24.771Z,58.40
2019-03-09T08:24:58.659Z,56.19
2019-03-09T08:27:34.316Z,59.23
2019-03-09T08:30:11.773Z,59.23
2019-03-09T08:32:46.537Z,61.45
2019-03-09T08:35:21.667Z,60.77
2019-03-09T08:37:55.478Z,63.09
2019-03-09T08:40:30.493Z,63.55
2019-03-09T08:43:04.213Z,64.39
2019-03-09T08:45:38.117Z,64.35
2019-03-09T08:48:13.805Z,64.40
2019-03-09T08:50:49.439Z,65.78
2019-03-09T08:53:23.507Z,66.03
2019-03-09T08:55:59.494Z,67.01
2019-03-09T08:58:33.385Z,67.25
2019-03-09T09:01:07.301Z,66.19
2019-03-09T09:03:42.198Z,66.85
2019-03-09T09:06:16.014Z,66.92
2019-03-09T09:08:49.868Z,67.04
2019-03-09T09:11:23.500Z,67.17
2019-03-09T09:13:59.052Z,67.45
2019-03-09T09:16:34.532Z,65.95
2019-03-09T09:19:08.872Z,66.83
2019-03-09T09:21:42.843Z,67.19
2019-03-09T09:24:16.580Z,67.24
2019-03-09T09:26:50.776Z,66.92
2019-03-09T09:29:26.157Z,66.85
2019-03-09T09:32:00.906Z,66.97
2019-03-09T09:34:35.868Z,63.53
2019-03-09T09:37:10.634Z,62.38
2019-03-09T09:39:47.680Z,64.72
2019-03-09T09:42:21.611Z,63.29
2019-03-09T09:44:55.438Z,61.45
2019-03-09T09:47:30.730Z,61.65
2019-03-09T09:50:04.789Z,61.79
2019-03-09T09:52:40.391Z,61.22
2019-03-09T09:55:16.308Z,61.13
2019-03-09T09:57:50.316Z,61.76
2019-03-09T10:00:29.704Z,61.52
2019-03-09T10:03:03.930Z,60.92
2019-03-09T10:05:37.899Z,61.06
2019-03-09T10:08:11.647Z,61.04
2019-03-09T10:10:45.580Z,60.45
2019-03-09T10:13:20.495Z,60.38
2019-03-09T10:15:54.191Z,61.20
2019-03-09T10:18:28.059Z,60.14
2019-03-09T10:21:02.141Z,60.14
2019-03-09T10:23:36.035Z,60.11
2019-03-09T10:26:10.915Z,60.41
2019-03-09T10:28:45.117Z,61.37
2019-03-09T10:31:20.481Z,61.37
2019-03-09T10:33:54.245Z,62.16
2019-03-09T10:36:28.158Z,62.64
2019-03-09T10:39:05.105Z,61.56
2019-03-09T10:41:39.105Z,61.98
2019-03-09T10:44:12.899Z,61.52
2019-03-09T10:46:46.650Z,61.72
2019-03-09T10:49:22.151Z,62.56
2019-03-09T10:51:56.163Z,61.50
2019-03-09T10:54:36.008Z,61.09
2019-03-09T10:57:08.549Z,60.76
2019-03-09T10:59:42.734Z,61.44
2019-03-09T11:02:17.470Z,61.60
2019-03-09T11:04:52.726Z,61.30
2019-03-09T11:07:27.669Z,62.10
2019-03-09T11:10:01.453Z,62.44
2019-03-09T11:12:35.156Z,62.42
2019-03-09T11:15:08.879Z,62.93
2019-03-09T11:17:42.633Z,62.55
2019-03-09T11:20:16.694Z,62.04
2019-03-09T11:22:52.343Z,61.77
2019-03-09T11:25:25.995Z,59.73
2019-03-09T11:28:12.901Z,57.98
2019-03-09T11:30:47.613Z,57.24
2019-03-09T11:33:21.802Z,57.09
2019-03-09T11:35:56.953Z,57.47
2019-03-09T11:38:31.106Z,56.07
2019-03-09T11:41:04.962Z,56.34
2019-03-09T11:43:38.791Z,56.13
2019-03-09T11:46:12.855Z,54.67
2019-03-09T11:48:46.483Z,53.58
2019-03-09T11:51:20.279Z,54.73
2019-03-09T11:53:54.474Z,53.15
2019-03-09T11:56:28.779Z,53.74
2019-03-09T11:59:04.627Z,53.64
2019-03-09T12:01:39.722Z,52.92
2019-03-09T12:04:14.849Z,53.96
2019-03-09T12:06:50.561Z,54.05
2019-03-09T12:09:24.364Z,54.31
2019-03-09T12:12:05.992Z,53.70
2019-03-09T12:14:40.512Z,53.06
2019-03-09T12:17:14.357Z,52.81
2019-03-09T12:19:48.364Z,53.43
2019-03-09T12:22:24.773Z,53.31
2019-03-09T12:24:58.784Z,53.29
2019-03-09T12:27:34.342Z,52.67
2019-03-09T12:30:10.676Z,53.19
2019-03-09T12:32:44.567Z,53.26
2019-03-09T12:35:18.592Z,51.12
2019-03-09T12:37:53.067Z,53.06
2019-03-09T12:40:27.023Z,52.03
2019-03-09T12:43:01.001Z,53.22
2019-03-09T12:45:34.974Z,53.79
2019-03-09T12:48:09.094Z,54.14
2019-03-09T12:50:44.329Z,54.46
2019-03-09T12:53:19.582Z,55.33
2019-03-09T12:55:54.531Z,55.87
2019-03-09T12:58:28.297Z,56.66
2019-03-09T13:01:02.363Z,57.08
2019-03-09T13:03:37.747Z,57.25
2019-03-09T13:06:12.044Z,57.93
2019-03-09T13:08:45.990Z,58.62
2019-03-09T13:11:19.642Z,58.69
2019-03-09T13:13:55.212Z,59.34
2019-03-09T13:16:28.955Z,59.57
2019-03-09T13:19:02.945Z,60.67
2019-03-09T13:21:38.624Z,61.14
2019-03-09T13:24:12.519Z,60.95
2019-03-09T13:26:47.163Z,60.92
2019-03-09T13:29:21.831Z,61.30
2019-03-09T13:31:55.794Z,61.74
2019-03-09T13:34:31.398Z,60.78
2019-03-09T13:37:05.486Z,60.44
2019-03-09T13:39:39.733Z,58.77
2019-03-09T13:42:14.843Z,59.23
2019-03-09T13:44:49.066Z,58.66
2019-03-09T13:47:22.939Z,58.57
2019-03-09T13:49:58.554Z,58.24
2019-03-09T13:52:34.251Z,58.45
2019-03-09T13:55:09.585Z,59.09
2019-03-09T13:57:44.684Z,61.52
2019-03-09T14:00:18.982Z,63.33
2019-03-09T14:02:52.788Z,64.53
2019-03-09T14:05:26.888Z,65.98
2019-03-09T14:08:00.811Z,69.83
2019-03-09T14:10:34.850Z,72.83
2019-03-09T14:13:09.104Z,74.71
2019-03-09T14:15:43.880Z,75.02
2019-03-09T14:18:22.789Z,75.55
2019-03-09T14:20:56.716Z,75.59
2019-03-09T14:23:30.659Z,74.15
2019-03-09T14:26:04.449Z,74.22
2019-03-09T14:28:38.202Z,75.74
2019-03-09T14:31:11.861Z,76.39
2019-03-09T14:33:47.333Z,75.67
2019-03-09T14:36:22.824Z,76.38
2019-03-09T14:38:56.739Z,76.99
2019-03-09T14:41:32.043Z,77.53
2019-03-09T14:44:05.791Z,78.10
2019-03-09T14:46:39.973Z,78.31
2019-03-09T14:49:13.970Z,77.54
2019-03-09T14:51:47.610Z,78.43
2019-03-09T14:54:21.396Z,78.70
2019-03-09T14:56:55.577Z,78.32
2019-03-09T14:59:29.417Z,78.37
2019-03-09T15:02:04.929Z,79.38
2019-03-09T15:04:38.674Z,80.31
2019-03-09T15:07:12.707Z,79.61
2019-03-09T15:09:46.264Z,76.06
2019-03-09T15:12:19.881Z,77.37
2019-03-09T15:14:53.447Z,78.50
2019-03-09T15:17:27.233Z,78.27
2019-03-09T15:20:03.031Z,78.60
2019-03-09T15:22:37.371Z,78.99
2019-03-09T15:25:12.014Z,79.79
2019-03-09T15:27:46.101Z,78.29
2019-03-09T15:30:19.926Z,79.00
2019-03-09T15:32:53.682Z,79.37
2019-03-09T15:35:30.355Z,80.08
2019-03-09T15:38:04.113Z,80.60
2019-03-09T15:40:38.090Z,80.93
2019-03-09T15:43:11.998Z,82.97
2019-03-09T15:45:49.420Z,82.41
2019-03-09T15:48:24.803Z,83.21
2019-03-09T15:50:58.822Z,85.20
2019-03-09T15:53:34.320Z,85.18
2019-03-09T15:56:08.128Z,86.33
2019-03-09T15:58:41.804Z,85.51
2019-03-09T16:01:15.571Z,84.93
2019-03-09T16:03:50.060Z,84.09
2019-03-09T16:06:25.681Z,83.86
2019-03-09T16:09:01.085Z,83.99
2019-03-09T16:11:44.376Z,84.62
2019-03-09T16:14:10.318Z,84.87
2019-03-09T16:16:44.247Z,85.06
2019-03-09T16:19:19.584Z,85.82
2019-03-09T16:21:55.014Z,84.97
2019-03-09T16:24:29.230Z,85.09
2019-03-09T16:27:04.171Z,84.98
2019-03-09T16:29:40.519Z,85.15
2019-03-09T16:32:14.567Z,85.06
2019-03-09T16:34:49.277Z,84.81
2019-03-09T16:37:23.880Z,84.54
2019-03-09T16:39:58.271Z,84.61
2019-03-09T16:42:32.031Z,83.66
2019-03-09T16:45:05.977Z,84.04
2019-03-09T16:47:40.113Z,84.50
2019-03-09T16:50:15.709Z,84.50
2019-03-09T16:52:52.500Z,85.19
2019-03-09T16:55:27.470Z,84.70
2019-03-09T16:58:01.262Z,84.67
2019-03-09T17:00:34.856Z,83.86
2019-03-09T17:03:08.619Z,83.78
2019-03-09T17:05:42.250Z,83.74
2019-03-09T17:08:16.497Z,82.75
2019-03-09T17:10:50.652Z,82.57
2019-03-09T17:13:24.356Z,82.05
2019-03-09T17:15:58.378Z,83.10
2019-03-09T17:18:32.661Z,81.34
2019-03-09T17:21:07.420Z,81.87
2019-03-09T17:23:41.126Z,81.39
2019-03-09T17:26:15.070Z,81.41
2019-03-09T17:28:49.078Z,80.95
2019-03-09T17:31:23.799Z,80.84
2019-03-09T17:33:57.785Z,79.77
2019-03-09T17:36:31.502Z,79.24
2019-03-09T17:39:06.032Z,78.26
2019-03-09T17:41:41.107Z,77.58
2019-03-09T17:44:15.101Z,77.18
2019-03-09T17:46:49.085Z,77.93
2019-03-09T17:49:22.854Z,77.72
2019-03-09T17:51:57.182Z,77.81
2019-03-09T17:54:31.023Z,76.96
2019-03-09T17:57:04.932Z,76.37
2019-03-09T17:59:39.284Z,77.20
2019-03-09T18:02:12.932Z,76.81
2019-03-09T18:04:47.131Z,76.08
2019-03-09T18:07:21.374Z,77.00
2019-03-09T18:09:55.527Z,76.71
2019-03-09T18:12:29.522Z,77.31
2019-03-09T18:15:03.292Z,77.52
2019-03-09T18:17:37.034Z,78.06
2019-03-09T18:20:12.850Z,79.20
2019-03-09T18:22:46.808Z,79.98
2019-03-09T18:25:20.837Z,80.57
2019-03-09T18:27:55.005Z,81.53
2019-03-09T18:30:28.815Z,80.84
2019-03-09T18:33:03.878Z,79.59
2019-03-09T18:35:41.645Z,78.33
2019-03-09T18:38:18.038Z,77.56
2019-03-09T18:40:54.288Z,76.56
2019-03-09T18:43:28.253Z,75.97
2019-03-09T18:46:02.336Z,73.01
2019-03-09T18:48:36.555Z,73.80
2019-03-09T18:51:10.456Z,70.51
2019-03-09T18:53:44.172Z,69.84
2019-03-09T18:56:19.874Z,69.35
2019-03-09T18:58:56.184Z,69.79
2019-03-09T19:01:30.141Z,70.68
2019-03-09T19:04:05.648Z,71.21
2019-03-09T19:06:39.523Z,69.94
2019-03-09T19:09:17.838Z,70.41
2019-03-09T19:11:51.835Z,70.20
2019-03-09T19:14:25.755Z,70.45
2019-03-09T19:16:59.655Z,71.90
2019-03-09T19:19:34.253Z,72.21
2019-03-09T19:22:09.075Z,72.52
2019-03-09T19:24:43.776Z,71.74
2019-03-09T19:27:17.978Z,72.39
2019-03-09T19:29:51.687Z,71.29
2019-03-09T19:32:25.918Z,71.55
2019-03-09T19:35:00.159Z,72.07
2019-03-09T19:37:37.214Z,72.62
2019-03-09T19:40:13.638Z,72.54
2019-03-09T19:42:48.623Z,72.24
2019-03-09T19:45:23.137Z,72.49
2019-03-09T19:47:57.892Z,72.59
2019-03-09T19:50:33.104Z,73.06
2019-03-09T19:53:06.970Z,73.45
2019-03-09T19:55:40.624Z,73.49
2019-03-09T19:58:15.321Z,72.56
2019-03-09T20:00:49.163Z,72.41
2019-03-09T20:03:24.281Z,72.39
2019-03-09T20:06:00.164Z,72.45
2019-03-09T20:08:34.137Z,72.90
2019-03-09T20:11:08.042Z,72.82
2019-03-09T20:13:41.880Z,73.15
2019-03-09T20:16:16.104Z,73.23
2019-03-09T20:18:58.206Z,73.88
2019-03-09T20:21:32.096Z,73.43
2019-03-09T20:24:07.001Z,73.13
2019-03-09T20:26:41.006Z,73.51
2019-03-09T20:29:18.550Z,74.18
2019-03-09T20:31:52.435Z,73.78
2019-03-09T20:34:28.869Z,73.50
2019-03-09T20:37:03.658Z,73.45
2019-03-09T20:39:42.977Z,74.21
2019-03-09T20:42:16.840Z,74.16
2019-03-09T20:44:50.605Z,74.40
2019-03-09T20:47:24.413Z,74.35
2019-03-09T20:49:58.811Z,74.64
2019-03-09T20:52:34.996Z,74.67
2019-03-09T20:55:09.208Z,74.32
2019-03-09T20:57:43.073Z,74.13
2019-03-09T21:00:18.218Z,74.94
2019-03-09T21:02:52.991Z,74.51
2019-03-09T21:05:26.870Z,73.30
2019-03-09T21:08:02.759Z,72.88
2019-03-09T21:10:38.406Z,72.83
2019-03-09T21:13:12.595Z,73.39
2019-03-09T21:15:46.900Z,73.61
2019-03-09T21:18:20.864Z,73.24
2019-03-09T21:20:55.072Z,72.86
2019-03-09T21:23:30.623Z,72.83
2019-03-09T21:26:11.253Z,73.04
2019-03-09T21:28:45.041Z,73.61
2019-03-09T21:31:19.383Z,73.86
2019-03-09T21:33:53.216Z,74.04
2019-03-09T21:36:28.393Z,74.18
2019-03-09T21:39:02.477Z,73.93
2019-03-09T21:41:38.084Z,74.01
2019-03-09T21:44:13.779Z,74.45
2019-03-09T21:46:48.082Z,74.40
2019-03-09T21:49:22.483Z,74.84
2019-03-09T21:51:59.747Z,75.26
2019-03-09T21:54:33.742Z,75.31
2019-03-09T21:57:07.697Z,75.53
2019-03-09T21:59:41.736Z,75.89
2019-03-09T22:02:17.912Z,75.77
2019-03-09T22:04:52.006Z,76.20
2019-03-09T22:07:27.115Z,76.10
2019-03-09T22:10:01.005Z,76.03
2019-03-09T22:12:35.494Z,76.07
2019-03-09T22:15:10.629Z,76.28
2019-03-09T22:17:44.536Z,75.74
2019-03-09T22:20:20.524Z,75.87
2019-03-09T22:22:53.802Z,75.83
2019-03-09T22:25:27.760Z,75.80
2019-03-09T22:28:03.242Z,75.29
2019-03-09T22:30:37.507Z,75.16
2019-03-09T22:33:11.375Z,74.41
2019-03-09T22:35:45.074Z,74.36
2019-03-09T22:38:19.137Z,74.41
2019-03-09T22:40:52.828Z,73.65
2019-03-09T22:43:26.622Z,73.80
2019-03-09T22:46:03.183Z,73.62
2019-03-09T22:48:38.002Z,73.42
2019-03-09T22:51:11.762Z,73.28
2019-03-09T22:53:46.803Z,72.96
2019-03-09T22:56:20.596Z,73.18
2019-03-09T22:58:54.249Z,72.79
2019-03-09T23:01:29.502Z,73.17
2019-03-09T23:04:03.474Z,73.34
2019-03-09T23:06:37.215Z,73.34
2019-03-09T23:09:12.801Z,73.53
2019-03-09T23:11:49.643Z,73.86
2019-03-09T23:14:23.315Z,74.16
2019-03-09T23:16:58.181Z,74.22
2019-03-09T23:19:32.398Z,74.20
2019-03-09T23:22:06.203Z,74.58
2019-03-09T23:24:39.898Z,74.94
2019-03-09T23:27:15.355Z,75.03
2019-03-09T23:29:48.989Z,75.02
2019-03-09T23:32:24.406Z,75.29
2019-03-09T23:34:58.229Z,75.48
2019-03-09T23:37:32.164Z,75.85
2019-03-09T23:40:06.410Z,75.82
2019-03-09T23:42:41.616Z,75.77
2019-03-09T23:45:16.702Z,75.94
2019-03-09T23:47:50.650Z,75.91
2019-03-09T23:50:25.547Z,75.62
2019-03-09T23:52:59.352Z,75.56
2019-03-09T23:55:33.313Z,75.27
2019-03-09T23:58:07.284Z,75.55
